Hauptseite
METAR-TAF:

METAR-TAF

Flughäfen :

Flughafen Innsbruck

Innsbruck, Österreich

Breite: 47-16N, Länge: 011-21E, Höhe: 581 m

Beobachtung

Neuester Wetterbericht von vor 26 Minuten, um 00:20 UTC
Wind 2 kt aus West
Temperatur 2°C
Luftfeuchtigkeit 93%
Luftdruck 1028 hPa
Sichtweite 10 km oder mehr

METAR: LOWI 150020Z AUTO 26002KT 9999 NSC 02/01 Q1028

Zeit: 01:46 (00:46 UTC)

Prognose

Neuester Wetterbericht von vor 1 Stunde und 31 Minuten, um 23:15 UTC
Gültige Prognose vom 15 um 00 UTC bis 15 um 24 UTC
Wind 2 kt aus unterschiedlichen Richtungen
Sichtweite 10 km oder mehr
keine Wolken unter 1500 m und keine Kumulonimbus oder Gewitterwolken
Wahrscheinlichkeit 30%
vom 15 um 00 UTC bis 15 um 09 UTC
Wind 3 kt aus Ost
Sichtweite: 2000 m
Geschlossene Wolkendecke in der Höhe von 400 ft
feuchter Dunst

TAF: LOWI 142315Z 1500/1524 VRB02KT CAVOK TX12/1514Z TN01/1506Z PROB30 1500/1509 09003KT 2000 BR OVC004

Wetterbeobachtungen und Prognosen von mehr als 4000 Flughäfen (METAR und TAF Bericht).

Die verfügbaren Stationen werden durch gelbe und rote Markierungen auf der Karte dargestellt.

Führen Sie die Maus auf sie, um den Namen der Station zu sehen.

Darauf klicken, um die Beobachtung von Wetterbeobachtungen und Prognosen zu sehen.

Um die Karte zu ändern : klicken Sie auf den grünen Tasten mit einem schwarzen Kreuz Zum Vergrößern, auf den grünen Button mit einem Gedankenstrich zu verkleinern, oder auf die grünen Pfeile für benachbarte Karten.


METAR-TAF: